WetterOnline ( https://www.wetteronline.de )

Wetter aktuell Hinterzarten

Aktuelles Wetter: Feldberg/Schwarzwald (1493m)

6-stündlich | Neueste Meldungen
Ortszeit Temperatur Wetter
Sa, 20.07. 20:00 19.5° C leicht bewölkt
Sa, 20.07. 14:00 18.8° C wolkig
Sa, 20.07. 8:00 17.2° C leicht bewölkt
Sa, 20.07. 2:00 16.9° C wolkenlos
Fr, 19.07. 20:00 18.4° C wolkig
Fr, 19.07. 14:00 18.8° C wolkig
Fr, 19.07. 8:00 16.4° C leicht bewölkt
Fr, 19.07. 2:00 15.8° C wolkig
Ortszeit Temperatur Wetter
So, 21.07. 0:30 18.9° C wolkig
So, 21.07. 0:20 18.9° C wolkig
So, 21.07. 0:10 18.4° C bedeckt
So, 21.07. 0:00 18.4° C wolkig
Sa, 20.07. 23:50 18.4° C wolkig
Sa, 20.07. 23:40 18.4° C bewölkt
Sa, 20.07. 23:30 18.5° C wolkig
Sa, 20.07. 23:00 18.3° C leicht bewölkt
Sa, 20.07. 22:30 18.6° C wolkenlos
Sa, 20.07. 22:00 18.4° C wolkenlos
Sa, 20.07. 21:30 18.6° C leicht bewölkt
Ortszeit Relative Feuchte Sichtweite
Sa, 20.07. 20:00 65% 50 km
Sa, 20.07. 14:00 66% 40 km
Sa, 20.07. 8:00 64% 50 km
Sa, 20.07. 2:00 72% 40 km
Fr, 19.07. 20:00 70% 40 km
Fr, 19.07. 14:00 52% 55 km
Fr, 19.07. 8:00 75% 45 km
Fr, 19.07. 2:00 80% 40 km
Ortszeit Relative Feuchte Sichtweite
So, 21.07. 0:30 58% 50 km
So, 21.07. 0:20 58% -
So, 21.07. 0:10 62% -
So, 21.07. 0:00 63% 45 km
Sa, 20.07. 23:50 63% -
Sa, 20.07. 23:40 65% -
Sa, 20.07. 23:30 65% 45 km
Sa, 20.07. 23:00 68% 35 km
Sa, 20.07. 22:30 67% 45 km
Sa, 20.07. 22:00 71% 40 km
Sa, 20.07. 21:30 69% 40 km
Ortszeit Niederschlagsmenge Niederschlagsart
Sa, 20.07. 20:00 0.1 l/m2 in 12 Std. Regen
Sa, 20.07. 14:00 0.0 l/m2 in 6 Std. -
Sa, 20.07. 8:00 0.0 l/m2 in 12 Std. -
Sa, 20.07. 2:00 0.0 l/m2 in 6 Std. -
Fr, 19.07. 20:00 0.0 l/m2 in 12 Std. -
Fr, 19.07. 14:00 0.0 l/m2 in 6 Std. -
Fr, 19.07. 8:00 0.0 l/m2 in 12 Std. -
Fr, 19.07. 2:00 0.0 l/m2 in 6 Std. -
Ortszeit Niederschlagsmenge Niederschlagsart
So, 21.07. 0:30 0.0 l/m2 in 30 Min -
So, 21.07. 0:20 keine Meldung -
So, 21.07. 0:10 keine Meldung -
So, 21.07. 0:00 0.0 l/m2 in 1 Std. -
Sa, 20.07. 23:50 keine Meldung -
Sa, 20.07. 23:40 keine Meldung -
Sa, 20.07. 23:30 0.0 l/m2 in 30 Min -
Sa, 20.07. 23:00 0.0 l/m2 in 1 Std. -
Sa, 20.07. 22:30 0.0 l/m2 in 30 Min -
Sa, 20.07. 22:00 0.0 l/m2 in 1 Std. -
Sa, 20.07. 21:30 0.0 l/m2 in 30 Min -
Ortszeit Stärke Spitze Richtung
km/h Bft. km/h Grad Sektor
Sa, 20.07. 20:00 6 1 17 130° SO
Sa, 20.07. 14:00 9 2 17 20° N
Sa, 20.07. 8:00 9 2 15 40° NO
Sa, 20.07. 2:00 9 2 24 240° SW
Fr, 19.07. 20:00 19 3 33 300° NW
Fr, 19.07. 14:00 15 3 30 220° SW
Fr, 19.07. 8:00 13 3 22 190° S
Fr, 19.07. 2:00 17 3 20 170° S
Ortszeit Stärke Spitze Richtung
km/h Bft. km/h Grad Sektor
So, 21.07. 0:30 18 3 22 140° SO
So, 21.07. 0:20 18 3 - 140° SO
So, 21.07. 0:10 18 3 - 130° SO
So, 21.07. 0:00 19 3 22 140° SO
Sa, 20.07. 23:50 19 3 - 140° SO
Sa, 20.07. 23:40 20 4 - 130° SO
Sa, 20.07. 23:30 18 3 22 140° SO
Sa, 20.07. 23:00 20 4 22 130° SO
Sa, 20.07. 22:30 13 3 17 150° SO
Sa, 20.07. 22:00 14 3 18 170° S
Sa, 20.07. 21:30 14 3 18 160° S
Ortszeit Untergrenze Bedeckung Gattung
total tief tief mittel hoch
Sa, 20.07. 20:00 4500 m 5/8 1/8 - - -
Sa, 20.07. 14:00 840 m 5/8 5/8 - - -
Sa, 20.07. 8:00 1260 m 4/8 4/8 - - -
Sa, 20.07. 2:00 - 0/8 0/8 - - -
Fr, 19.07. 20:00 5100 m 8/8 8/8 - - -
Fr, 19.07. 14:00 3600 m 5/8 4/8 - - -
Fr, 19.07. 8:00 9000 m 7/8 0/8 - - -
Fr, 19.07. 2:00 8400 m 7/8 0/8 - - -
Ortszeit Bedeckungsgrad in Achtel und Wolkenuntergrenze
So, 21.07. 0:30 4(6600m) 7(8100m) 7(9000m)
So, 21.07. 0:20 4(6600m) 7(8100m) 7(9000m)
So, 21.07. 0:10 8
So, 21.07. 0:00 4(7800m) 7(8700m) 7(9000m)
Sa, 20.07. 23:50 4(7800m) 7(8700m) 7(9000m)
Sa, 20.07. 23:40 7
Sa, 20.07. 23:30 7(9000m) 7(9000m)
Sa, 20.07. 23:00 4(9000m)
Sa, 20.07. 22:30 keine Wolken
Sa, 20.07. 22:00 keine Wolken
Sa, 20.07. 21:30 1(6900m) 4(8700m)
Ortszeit Stationsdruck (hPa) Tendenz (hPa in 3 Std.)
Sa, 20.07. 20:00 849 - 1,2
Sa, 20.07. 14:00 851 - 0,9
Sa, 20.07. 8:00 852 - 0,6
Sa, 20.07. 2:00 854 - 1,3
Fr, 19.07. 20:00 855 - 0,7
Fr, 19.07. 14:00 856 - 0,3
Fr, 19.07. 8:00 857 + 0,1
Fr, 19.07. 2:00 858 - 0,4
Ortszeit Stationsdruck (hPa) Tendenz (hPa in 3 Std.)
So, 21.07. 0:30 848 - 0,6
So, 21.07. 0:20 848 keine Meldung
So, 21.07. 0:10 848 keine Meldung
So, 21.07. 0:00 848 - 0,9
Sa, 20.07. 23:50 848 keine Meldung
Sa, 20.07. 23:40 848 keine Meldung
Sa, 20.07. 23:30 848 - 0,6
Sa, 20.07. 23:00 848 - 0,4
Sa, 20.07. 22:30 849 - 0,3
Sa, 20.07. 22:00 849 - 0,3
Sa, 20.07. 21:30 849 - 0,5
Ortszeit Schneehöhe (cm)
Sa, 20.07. 20:00 0
Sa, 20.07. 14:00 0
Sa, 20.07. 8:00 0
Sa, 20.07. 2:00 0
Fr, 19.07. 20:00 0
Fr, 19.07. 14:00 0
Fr, 19.07. 8:00 0
Fr, 19.07. 2:00 0
Ortszeit Schneehöhe (cm)
So, 21.07. 0:30 0
So, 21.07. 0:20 0
So, 21.07. 0:10 -
So, 21.07. 0:00 0
Sa, 20.07. 23:50 0
Sa, 20.07. 23:40 -
Sa, 20.07. 23:30 0
Sa, 20.07. 23:00 0
Sa, 20.07. 22:30 0
Sa, 20.07. 22:00 0
Sa, 20.07. 21:30 0
Link zu dieser Seite / Seite empfehlen

Das Wetter in ...